createdAt,value
2022-07-31T00:00:20.102Z,45.52
2022-07-31T00:05:12.640Z,45.33
2022-07-31T00:10:05.192Z,45.51
2022-07-31T00:14:57.683Z,45.39
2022-07-31T00:19:50.363Z,45.38
2022-07-31T00:24:42.696Z,45.18
2022-07-31T00:29:35.121Z,45.28
2022-07-31T00:34:27.460Z,44.98
2022-07-31T00:39:20.239Z,44.98
2022-07-31T00:44:12.759Z,45.18
2022-07-31T00:49:05.207Z,45.09
2022-07-31T00:53:57.518Z,45.12
2022-07-31T00:58:50.045Z,45.32
2022-07-31T01:03:42.337Z,45.1
2022-07-31T01:08:35.108Z,44.74
2022-07-31T01:13:27.598Z,45.02
2022-07-31T01:18:20.224Z,44.81
2022-07-31T01:23:12.743Z,44.81
2022-07-31T01:28:05.275Z,44.71
2022-07-31T01:32:58.286Z,44.71
2022-07-31T01:37:50.863Z,44.69
2022-07-31T01:42:43.292Z,44.64
2022-07-31T01:47:35.767Z,44.72
2022-07-31T01:52:28.257Z,44.59
2022-07-31T01:57:20.811Z,44.56
2022-07-31T02:02:13.362Z,44.52
2022-07-31T02:07:05.790Z,44.5
2022-07-31T02:11:58.457Z,44.31
2022-07-31T02:16:51.000Z,44.3
2022-07-31T02:21:43.750Z,44.28
2022-07-31T02:31:28.860Z,44.32
2022-07-31T02:41:13.603Z,44.19
2022-07-31T02:46:06.146Z,44.26
2022-07-31T02:50:58.450Z,44.26
2022-07-31T03:00:43.494Z,44.05
2022-07-31T03:05:35.896Z,44.22
2022-07-31T03:10:29.445Z,43.93
2022-07-31T03:15:21.846Z,44.04
2022-07-31T03:20:14.490Z,43.99
2022-07-31T03:25:07.035Z,43.75
2022-07-31T03:29:59.627Z,43.86
2022-07-31T03:34:52.120Z,43.87
2022-07-31T03:39:44.609Z,43.77
2022-07-31T03:44:36.895Z,43.8
2022-07-31T03:49:29.450Z,43.73
2022-07-31T03:54:21.621Z,43.64
2022-07-31T03:59:14.351Z,43.7
2022-07-31T04:04:06.897Z,43.65
2022-07-31T04:08:59.439Z,43.72
2022-07-31T04:13:52.046Z,43.65
2022-07-31T04:18:47.809Z,43.68
2022-07-31T04:23:37.324Z,43.49
2022-07-31T04:28:30.060Z,43.58
2022-07-31T04:33:22.580Z,43.64
2022-07-31T04:38:15.221Z,43.72
2022-07-31T04:43:07.929Z,44.38
2022-07-31T04:47:59.717Z,45.36
2022-07-31T04:52:52.095Z,45.95
2022-07-31T04:57:44.317Z,46.06
2022-07-31T05:02:36.736Z,46.5
2022-07-31T05:07:29.256Z,47.55
2022-07-31T05:12:21.348Z,48.07
2022-07-31T05:17:13.327Z,48.56
2022-07-31T05:22:06.201Z,48.6
2022-07-31T05:26:58.318Z,49.04
2022-07-31T05:32:00.190Z,49.32
2022-07-31T05:36:42.708Z,49.9
2022-07-31T05:41:34.765Z,52.17
2022-07-31T05:46:27.389Z,50.54
2022-07-31T05:51:20.100Z,50.87
2022-07-31T05:56:12.558Z,49.7
2022-07-31T06:01:04.939Z,50.38
2022-07-31T06:05:57.083Z,50.6
2022-07-31T06:10:49.673Z,49.95
2022-07-31T06:15:42.254Z,52.11
2022-07-31T06:20:34.325Z,51.07
2022-07-31T06:25:25.878Z,53.1
2022-07-31T06:30:18.912Z,53.65
2022-07-31T06:35:11.222Z,52.89
2022-07-31T06:40:03.546Z,54.08
2022-07-31T06:44:55.456Z,53.73
2022-07-31T06:49:48.069Z,53.79
2022-07-31T06:54:40.287Z,54.76
2022-07-31T07:04:20.262Z,54.09
2022-07-31T07:09:14.053Z,54.08
2022-07-31T07:14:06.728Z,54.71
2022-07-31T07:18:59.431Z,54.72
2022-07-31T07:23:52.499Z,53.13
2022-07-31T07:28:44.758Z,55.12
2022-07-31T07:33:40.278Z,53.56
2022-07-31T07:38:30.284Z,53.6
2022-07-31T07:43:23.185Z,52.94
2022-07-31T07:46:56.400Z,53.26
2022-07-31T07:48:07.388Z,53.31
2022-07-31T07:48:34.975Z,53.21
2022-07-31T07:53:27.499Z,52.68
2022-07-31T07:58:20.183Z,52.94
2022-07-31T08:03:47.890Z,52.06
2022-07-31T08:08:06.063Z,51.06
2022-07-31T08:12:58.867Z,50.57
2022-07-31T08:17:51.423Z,50.32
2022-07-31T08:22:44.315Z,50.47
2022-07-31T08:27:40.070Z,50.42
2022-07-31T08:32:29.875Z,50.05
2022-07-31T08:37:50.470Z,49.99
2022-07-31T08:47:07.360Z,49.43
2022-07-31T08:51:59.938Z,49.31
2022-07-31T08:56:52.641Z,49.19
2022-07-31T09:06:37.593Z,48.56
2022-07-31T09:11:30.088Z,48.57
2022-07-31T09:16:24.333Z,48.39
2022-07-31T09:21:15.264Z,48.15
2022-07-31T09:26:07.773Z,47.73
2022-07-31T09:31:00.345Z,47.55
2022-07-31T09:35:52.923Z,47.3
2022-07-31T09:40:55.569Z,46.92
2022-07-31T09:45:37.917Z,46.7
2022-07-31T09:50:30.508Z,46.54
2022-07-31T09:55:23.359Z,46.19
2022-07-31T10:00:17.335Z,45.5
2022-07-31T10:05:08.362Z,45.28
2022-07-31T10:10:00.722Z,45.36
2022-07-31T10:14:53.356Z,45.18
2022-07-31T10:19:45.717Z,44.32
2022-07-31T10:24:38.354Z,44.33
2022-07-31T10:29:32.749Z,44.15
2022-07-31T10:34:23.862Z,43.88
2022-07-31T10:39:16.183Z,43.87
2022-07-31T10:44:09.010Z,44.3
2022-07-31T10:49:08.181Z,43.91
2022-07-31T10:53:55.295Z,43.91
2022-07-31T10:58:47.327Z,43.75
2022-07-31T11:03:40.161Z,43.63
2022-07-31T11:08:32.647Z,43.52
2022-07-31T11:13:33.425Z,43.82
2022-07-31T11:18:23.936Z,44.06
2022-07-31T11:23:10.916Z,43.41
2022-07-31T11:28:03.797Z,42.95
2022-07-31T11:32:56.417Z,43.41
2022-07-31T11:37:56.539Z,43.01
2022-07-31T11:42:41.745Z,42.64
2022-07-31T11:48:10.601Z,42.39
2022-07-31T11:52:30.522Z,42.92
2022-07-31T11:57:19.578Z,42.8
2022-07-31T12:02:11.946Z,42.84
2022-07-31T12:07:04.922Z,42.21
2022-07-31T12:11:57.271Z,42.12
2022-07-31T12:16:49.726Z,42.18
2022-07-31T12:21:42.657Z,42.2
2022-07-31T12:26:35.309Z,42.07
2022-07-31T12:31:28.026Z,41.92
2022-07-31T12:36:20.584Z,41.96
2022-07-31T12:41:13.026Z,41.73
2022-07-31T12:46:05.635Z,41.47
2022-07-31T12:50:57.973Z,41.27
2022-07-31T12:55:50.498Z,41.19
2022-07-31T13:00:43.090Z,41.17
2022-07-31T13:05:35.707Z,41
2022-07-31T13:10:30.911Z,41.09
2022-07-31T13:15:22.434Z,40.55
2022-07-31T13:20:14.608Z,40.55
2022-07-31T13:25:06.482Z,40.39
2022-07-31T13:29:59.117Z,40.31
2022-07-31T13:35:20.004Z,40.17
2022-07-31T13:39:44.148Z,40.18
2022-07-31T13:44:36.851Z,40.11
2022-07-31T13:49:29.647Z,40.07
2022-07-31T13:54:22.055Z,39.87
2022-07-31T13:59:14.550Z,39.94
2022-07-31T14:04:07.097Z,39.76
2022-07-31T14:08:59.860Z,39.71
2022-07-31T14:13:52.395Z,39.54
2022-07-31T14:18:44.846Z,39.46
2022-07-31T14:23:40.593Z,39.51
2022-07-31T14:28:30.033Z,39.51
2022-07-31T14:33:22.458Z,39.69
2022-07-31T14:38:14.988Z,39.76
2022-07-31T14:43:07.739Z,39.83
2022-07-31T14:48:00.372Z,39.75
2022-07-31T14:52:53.193Z,39.87
2022-07-31T14:57:45.792Z,39.87
2022-07-31T15:02:38.569Z,40.14
2022-07-31T15:07:36.578Z,40.03
2022-07-31T15:12:23.753Z,40.08
2022-07-31T15:17:16.353Z,40.03
2022-07-31T15:22:09.636Z,40.11
2022-07-31T15:31:54.237Z,40.35
2022-07-31T15:41:39.347Z,40.38
2022-07-31T15:46:33.901Z,40.56
2022-07-31T15:51:26.052Z,40.51
2022-07-31T15:56:18.848Z,40.46
2022-07-31T16:01:11.232Z,40.07
2022-07-31T16:06:03.715Z,39.92
2022-07-31T16:10:56.362Z,40.11
2022-07-31T16:15:49.148Z,39.86
2022-07-31T16:20:41.726Z,39.56
2022-07-31T16:25:34.576Z,39.64
2022-07-31T16:30:27.077Z,39.73
2022-07-31T16:35:19.761Z,39.61
2022-07-31T16:40:27.106Z,39.75
2022-07-31T16:45:04.961Z,39.85
2022-07-31T16:49:57.204Z,40.07
2022-07-31T16:54:49.663Z,39.86
2022-07-31T16:59:56.759Z,40.11
2022-07-31T17:04:35.175Z,40.21
2022-07-31T17:09:27.643Z,40.11
2022-07-31T17:14:20.980Z,40.46
2022-07-31T17:19:13.539Z,40.53
2022-07-31T17:24:06.098Z,40.49
2022-07-31T17:28:58.253Z,40.72
2022-07-31T17:33:58.238Z,41.91
2022-07-31T17:38:43.362Z,42.39
2022-07-31T17:43:39.191Z,42.6
2022-07-31T17:48:28.322Z,43.7
2022-07-31T17:53:20.830Z,44.64
2022-07-31T17:58:13.294Z,45.79
2022-07-31T18:03:05.779Z,45.95
2022-07-31T18:07:58.573Z,46.04
2022-07-31T18:12:57.096Z,46.08
2022-07-31T18:17:43.574Z,45.38
2022-07-31T18:22:49.522Z,45.57
2022-07-31T18:27:28.846Z,46.87
2022-07-31T18:32:21.555Z,46.86
2022-07-31T18:37:14.300Z,46.81
2022-07-31T18:42:07.295Z,45.97
2022-07-31T18:46:59.703Z,46.07
2022-07-31T18:51:52.416Z,46.34
2022-07-31T18:56:45.042Z,46.03
2022-07-31T19:01:37.474Z,47.08
2022-07-31T19:06:29.938Z,46.6
2022-07-31T19:11:22.423Z,47.12
2022-07-31T19:16:15.886Z,47.04
2022-07-31T19:21:19.227Z,47.37
2022-07-31T19:26:04.257Z,48.16
2022-07-31T19:30:54.984Z,48.57
2022-07-31T19:35:50.846Z,48.6
2022-07-31T19:40:39.249Z,48.31
2022-07-31T19:45:31.662Z,47.79
2022-07-31T19:50:26.211Z,47.97
2022-07-31T19:55:18.202Z,48.3
2022-07-31T20:00:11.049Z,48.42
2022-07-31T20:05:03.579Z,48.46
2022-07-31T20:09:57.277Z,48.41
2022-07-31T20:14:49.693Z,47.97
2022-07-31T20:19:48.595Z,47.94
2022-07-31T20:24:35.143Z,47.78
2022-07-31T20:29:27.467Z,47.24
2022-07-31T20:34:14.099Z,46.83
2022-07-31T20:39:10.830Z,46.83
2022-07-31T20:44:03.636Z,46.52
2022-07-31T20:48:56.376Z,46.34
2022-07-31T20:53:48.753Z,46.09
2022-07-31T20:58:41.586Z,45.89
2022-07-31T21:08:26.870Z,46.04
2022-07-31T21:13:19.621Z,45.94
2022-07-31T21:18:12.118Z,45.83
2022-07-31T21:23:04.875Z,45.72
2022-07-31T21:27:57.628Z,45.71
2022-07-31T21:32:50.217Z,45.69
2022-07-31T21:37:42.751Z,45.76
2022-07-31T21:42:35.616Z,45.95
2022-07-31T21:47:28.005Z,45.95
2022-07-31T21:52:20.419Z,46.23
2022-07-31T21:57:12.995Z,46.64
2022-07-31T22:02:05.502Z,46.51
2022-07-31T22:06:57.926Z,46.5
2022-07-31T22:11:55.141Z,46.46
2022-07-31T22:16:43.098Z,46.54
2022-07-31T22:21:35.585Z,46.36
2022-07-31T22:26:28.243Z,46.5
2022-07-31T22:31:20.993Z,46.51
2022-07-31T22:36:13.847Z,46.46
2022-07-31T22:41:06.455Z,46.36
2022-07-31T22:45:58.927Z,46.4
2022-07-31T22:50:51.644Z,46.38
2022-07-31T22:55:43.906Z,46.51
2022-07-31T23:00:36.777Z,46.4
2022-07-31T23:05:29.382Z,46.66
2022-07-31T23:10:22.153Z,46.35
2022-07-31T23:15:14.449Z,46.41
2022-07-31T23:20:07.063Z,46.33
2022-07-31T23:24:59.662Z,46.31
2022-07-31T23:29:52.157Z,46.26
2022-07-31T23:34:44.988Z,46.36
2022-07-31T23:39:37.677Z,46.22
2022-07-31T23:44:30.432Z,46.19
2022-07-31T23:49:23.148Z,46.25
2022-07-31T23:54:15.237Z,46.29
2022-07-31T23:59:07.785Z,46.18
